DEAHM EDKB-ZZZZ
Flight info
| Callsign | DEAHM |
|---|---|
| Flight time | N/A |
| Altitude | 2300 |
| Route | DCT |
| Aircraft | PA24/L-VGD/C |
Departure
| Time | 2026-04-25 15:40 |
|---|---|
| Airport | Bonn-Hangelar Airfield (EDKB) |
Arrival
| Time | N/A |
|---|---|
| Airport | ZZZZ |
| Time | Latitude | Longitude | Altitude | Speed | Heading |
|---|---|---|---|---|---|
| 2026-04-25 15:20 | 50.76700 | 7.16581 | 205 ft | 0 kts | 15° |
| 2026-04-25 15:33 | 50.76704 | 7.16567 | 209 ft | 2 kts | 223° |
| 2026-04-25 15:33 | 50.76696 | 7.16522 | 205 ft | 7 kts | 296° |
| 2026-04-25 15:33 | 50.76749 | 7.16506 | 202 ft | 9 kts | 58° |
| 2026-04-25 15:33 | 50.76731 | 7.16617 | 208 ft | 14 kts | 112° |
| 2026-04-25 15:34 | 50.76699 | 7.16772 | 204 ft | 10 kts | 112° |
| 2026-04-25 15:34 | 50.76700 | 7.16805 | 199 ft | 2 kts | 321° |
| 2026-04-25 15:34 | 50.76701 | 7.16802 | 199 ft | 0 kts | 281° |
| 2026-04-25 15:38 | 50.76703 | 7.16788 | 199 ft | 6 kts | 286° |
| 2026-04-25 15:38 | 50.76728 | 7.16776 | 203 ft | 0 kts | 27° |
| 2026-04-25 15:39 | 50.76729 | 7.16777 | 203 ft | 2 kts | 25° |
| 2026-04-25 15:39 | 50.76759 | 7.16793 | 200 ft | 10 kts | 7° |
| 2026-04-25 15:39 | 50.76802 | 7.16727 | 198 ft | 21 kts | 291° |
| 2026-04-25 15:39 | 50.76925 | 7.16143 | 262 ft | 73 kts | 292° |
| 2026-04-25 15:40 | 50.77110 | 7.15353 | 533 ft | 81 kts | 296° |
| 2026-04-25 15:40 | 50.77232 | 7.14782 | 766 ft | 84 kts | 279° |
| 2026-04-25 15:40 | 50.76925 | 7.13603 | 1204 ft | 95 kts | 240° |
| 2026-04-25 15:40 | 50.76518 | 7.12722 | 1596 ft | 101 kts | 242° |
| 2026-04-25 15:41 | 50.76103 | 7.11821 | 1968 ft | 104 kts | 240° |
| 2026-04-25 15:41 | 50.75669 | 7.10886 | 2273 ft | 109 kts | 238° |
| 2026-04-25 15:41 | 50.75109 | 7.09910 | 2298 ft | 129 kts | 232° |
| 2026-04-25 15:41 | 50.74452 | 7.08858 | 2317 ft | 140 kts | 229° |
| 2026-04-25 15:42 | 50.73744 | 7.07763 | 2310 ft | 148 kts | 226° |
| 2026-04-25 15:42 | 50.72956 | 7.06640 | 2336 ft | 155 kts | 224° |
| 2026-04-25 15:42 | 50.72108 | 7.05560 | 2333 ft | 158 kts | 225° |
| 2026-04-25 15:42 | 50.71293 | 7.04390 | 2320 ft | 157 kts | 229° |
| 2026-04-25 15:43 | 50.70540 | 7.03191 | 2303 ft | 154 kts | 226° |
| 2026-04-25 15:43 | 50.69682 | 7.02130 | 2296 ft | 158 kts | 226° |
| 2026-04-25 15:43 | 50.68863 | 7.01002 | 2315 ft | 156 kts | 222° |
| 2026-04-25 15:43 | 50.68058 | 6.99824 | 2295 ft | 159 kts | 229° |
| 2026-04-25 15:44 | 50.67227 | 6.98708 | 2320 ft | 157 kts | 224° |
| 2026-04-25 15:44 | 50.66410 | 6.97537 | 2310 ft | 160 kts | 234° |
| 2026-04-25 15:44 | 50.66105 | 6.95905 | 2304 ft | 156 kts | 273° |
| 2026-04-25 15:44 | 50.66072 | 6.94215 | 2327 ft | 153 kts | 273° |
| 2026-04-25 15:45 | 50.66019 | 6.92550 | 2320 ft | 152 kts | 269° |
| 2026-04-25 15:45 | 50.65945 | 6.90874 | 2311 ft | 152 kts | 268° |
| 2026-04-25 15:45 | 50.65908 | 6.89199 | 2316 ft | 152 kts | 272° |
| 2026-04-25 15:45 | 50.65875 | 6.88098 | 2316 ft | 151 kts | 270° |
| 2026-04-25 15:46 | 50.65797 | 6.85989 | 2586 ft | 136 kts | 267° |
| 2026-04-25 15:46 | 50.65672 | 6.84828 | 3461 ft | 82 kts | 262° |
| 2026-04-25 15:46 | 50.65543 | 6.83934 | 3814 ft | 85 kts | 265° |
| 2026-04-25 15:46 | 50.65453 | 6.83016 | 4168 ft | 84 kts | 272° |
| 2026-04-25 15:47 | 50.65420 | 6.82110 | 4493 ft | 82 kts | 277° |
| 2026-04-25 15:47 | 50.65427 | 6.81193 | 4804 ft | 84 kts | 277° |
| 2026-04-25 15:47 | 50.65456 | 6.80290 | 5131 ft | 83 kts | 288° |
| 2026-04-25 15:47 | 50.65608 | 6.79422 | 5445 ft | 80 kts | 290° |
| 2026-04-25 15:48 | 50.65714 | 6.78553 | 5726 ft | 83 kts | 284° |
| 2026-04-25 15:48 | 50.65799 | 6.77661 | 6011 ft | 82 kts | 286° |
| 2026-04-25 15:48 | 50.65933 | 6.76778 | 6297 ft | 84 kts | 288° |
| 2026-04-25 15:48 | 50.66051 | 6.75875 | 6583 ft | 84 kts | 288° |
| 2026-04-25 15:49 | 50.66195 | 6.74982 | 6826 ft | 85 kts | 292° |
| 2026-04-25 15:49 | 50.66366 | 6.74102 | 7109 ft | 83 kts | 293° |
| 2026-04-25 15:49 | 50.66549 | 6.73226 | 7353 ft | 85 kts | 293° |
| 2026-04-25 15:49 | 50.66740 | 6.72351 | 7594 ft | 85 kts | 299° |
| 2026-04-25 15:50 | 50.67028 | 6.71544 | 7865 ft | 84 kts | 304° |
| 2026-04-25 15:50 | 50.67335 | 6.70762 | 8112 ft | 84 kts | 305° |
| 2026-04-25 15:50 | 50.67615 | 6.69948 | 8336 ft | 86 kts | 288° |
| 2026-04-25 15:50 | 50.67573 | 6.69017 | 8591 ft | 91 kts | 255° |
| 2026-04-25 15:51 | 50.67295 | 6.68088 | 8826 ft | 95 kts | 254° |
| 2026-04-25 15:51 | 50.67103 | 6.67459 | 8981 ft | 95 kts | 251° |
| 2026-04-25 15:51 | 50.66641 | 6.66270 | 9302 ft | 97 kts | 244° |
| 2026-04-25 15:51 | 50.66249 | 6.65399 | 9538 ft | 100 kts | 244° |
| 2026-04-25 15:52 | 50.65847 | 6.64453 | 9685 ft | 110 kts | 245° |
| 2026-04-25 15:52 | 50.65390 | 6.63363 | 9678 ft | 128 kts | 243° |
| 2026-04-25 15:52 | 50.64884 | 6.62147 | 9697 ft | 138 kts | 245° |
| 2026-04-25 15:52 | 50.64355 | 6.60838 | 9690 ft | 145 kts | 243° |
| 2026-04-25 15:53 | 50.63802 | 6.59476 | 9685 ft | 149 kts | 244° |
| 2026-04-25 15:53 | 50.63407 | 6.57948 | 9652 ft | 152 kts | 268° |
| 2026-04-25 15:53 | 50.63304 | 6.56322 | 9667 ft | 149 kts | 270° |
| 2026-04-25 15:53 | 50.63214 | 6.54697 | 9666 ft | 149 kts | 270° |
| 2026-04-25 15:54 | 50.63127 | 6.53096 | 9679 ft | 148 kts | 270° |
| 2026-04-25 15:54 | 50.63036 | 6.51477 | 9678 ft | 149 kts | 270° |
| 2026-04-25 15:54 | 50.63030 | 6.49853 | 9684 ft | 148 kts | 281° |
| 2026-04-25 15:54 | 50.63507 | 6.48462 | 9671 ft | 147 kts | 321° |
| 2026-04-25 15:55 | 50.64356 | 6.47603 | 9698 ft | 145 kts | 327° |
| 2026-04-25 15:55 | 50.65218 | 6.46780 | 9684 ft | 145 kts | 328° |
| 2026-04-25 15:55 | 50.66071 | 6.45936 | 9680 ft | 145 kts | 324° |
| 2026-04-25 15:55 | 50.66868 | 6.44968 | 9677 ft | 144 kts | 319° |
| 2026-04-25 15:56 | 50.67589 | 6.43871 | 9674 ft | 144 kts | 312° |
| 2026-04-25 15:56 | 50.68227 | 6.42651 | 9672 ft | 144 kts | 307° |
| 2026-04-25 15:56 | 50.68805 | 6.41365 | 9677 ft | 143 kts | 305° |
| 2026-04-25 15:56 | 50.69397 | 6.40098 | 9678 ft | 144 kts | 311° |
| 2026-04-25 15:57 | 50.70067 | 6.38931 | 9676 ft | 143 kts | 314° |
| 2026-04-25 15:57 | 50.70752 | 6.37785 | 9682 ft | 143 kts | 314° |
| 2026-04-25 15:57 | 50.71441 | 6.36644 | 9690 ft | 144 kts | 314° |
| 2026-04-25 15:57 | 50.72135 | 6.35493 | 9689 ft | 144 kts | 314° |
| 2026-04-25 15:58 | 50.72826 | 6.34346 | 9685 ft | 144 kts | 313° |
| 2026-04-25 15:58 | 50.73509 | 6.33186 | 9682 ft | 144 kts | 313° |
| 2026-04-25 15:58 | 50.74168 | 6.32059 | 9567 ft | 141 kts | 313° |
| 2026-04-25 15:58 | 50.74857 | 6.30899 | 9214 ft | 148 kts | 313° |
| 2026-04-25 15:59 | 50.75561 | 6.29731 | 8989 ft | 145 kts | 314° |
| 2026-04-25 15:59 | 50.76334 | 6.28745 | 8712 ft | 146 kts | 336° |
| 2026-04-25 15:59 | 50.77339 | 6.28792 | 8481 ft | 149 kts | 19° |
| 2026-04-25 15:59 | 50.78254 | 6.29614 | 8262 ft | 153 kts | 25° |
| 2026-04-25 16:00 | 50.79160 | 6.30472 | 7997 ft | 154 kts | 26° |
| 2026-04-25 16:00 | 50.79467 | 6.30774 | 7921 ft | 154 kts | 26° |
| 2026-04-25 16:00 | 50.80972 | 6.32210 | 7519 ft | 151 kts | 26° |
| 2026-04-25 16:00 | 50.81873 | 6.33074 | 7271 ft | 151 kts | 26° |
| 2026-04-25 16:01 | 50.82774 | 6.33918 | 7045 ft | 149 kts | 25° |
| 2026-04-25 16:01 | 50.83657 | 6.34786 | 6803 ft | 150 kts | 26° |
| 2026-04-25 16:01 | 50.84546 | 6.35629 | 6564 ft | 148 kts | 25° |
| 2026-04-25 16:01 | 50.85430 | 6.36462 | 6312 ft | 148 kts | 26° |
| 2026-04-25 16:02 | 50.86309 | 6.37309 | 6080 ft | 148 kts | 26° |
| 2026-04-25 16:02 | 50.87186 | 6.38141 | 5869 ft | 146 kts | 25° |
| 2026-04-25 16:02 | 50.88063 | 6.38954 | 5642 ft | 146 kts | 25° |
| 2026-04-25 16:02 | 50.88934 | 6.39766 | 5408 ft | 145 kts | 25° |
| 2026-04-25 16:03 | 50.89801 | 6.40576 | 5215 ft | 145 kts | 25° |
| 2026-04-25 16:03 | 50.90665 | 6.41396 | 5007 ft | 144 kts | 26° |
| 2026-04-25 16:03 | 50.91538 | 6.42176 | 4804 ft | 143 kts | 25° |
| 2026-04-25 16:03 | 50.92391 | 6.43001 | 4591 ft | 143 kts | 25° |
| 2026-04-25 16:04 | 50.93248 | 6.43797 | 4366 ft | 143 kts | 25° |
| 2026-04-25 16:04 | 50.94109 | 6.44580 | 4156 ft | 143 kts | 25° |
| 2026-04-25 16:04 | 50.94978 | 6.45352 | 3970 ft | 143 kts | 26° |
| 2026-04-25 16:04 | 50.95835 | 6.46112 | 3837 ft | 143 kts | 25° |
| 2026-04-25 16:05 | 50.96711 | 6.46856 | 3688 ft | 143 kts | 23° |
| 2026-04-25 16:05 | 50.97576 | 6.47643 | 3506 ft | 144 kts | 26° |
| 2026-04-25 16:05 | 50.99322 | 6.49150 | 3196 ft | 143 kts | 26° |
| 2026-04-25 16:06 | 51.00182 | 6.49940 | 3053 ft | 143 kts | 24° |
| 2026-04-25 16:06 | 51.01059 | 6.50660 | 2899 ft | 142 kts | 23° |
| 2026-04-25 16:06 | 51.01853 | 6.51572 | 2765 ft | 142 kts | 39° |
| 2026-04-25 16:06 | 51.02527 | 6.52739 | 2577 ft | 144 kts | 49° |
| 2026-04-25 16:07 | 51.03117 | 6.54045 | 2414 ft | 146 kts | 52° |
| 2026-04-25 16:07 | 51.03302 | 6.54474 | 2378 ft | 145 kts | 53° |
| 2026-04-25 16:07 | 51.04336 | 6.56705 | 2254 ft | 155 kts | 53° |
| 2026-04-25 16:07 | 51.04888 | 6.58171 | 2283 ft | 153 kts | 54° |
| 2026-04-25 16:08 | 51.05515 | 6.59541 | 2285 ft | 154 kts | 47° |
| 2026-04-25 16:08 | 51.06217 | 6.60814 | 2318 ft | 153 kts | 45° |
| 2026-04-25 16:08 | 51.06937 | 6.62078 | 2321 ft | 154 kts | 44° |
| 2026-04-25 16:08 | 51.07628 | 6.63368 | 2384 ft | 153 kts | 44° |
| 2026-04-25 16:09 | 51.08153 | 6.64836 | 2283 ft | 160 kts | 77° |
| 2026-04-25 16:09 | 51.08139 | 6.66639 | 2264 ft | 162 kts | 86° |
| 2026-04-25 16:09 | 51.08094 | 6.68417 | 2331 ft | 160 kts | 89° |
| 2026-04-25 16:09 | 51.08107 | 6.70189 | 2350 ft | 160 kts | 83° |
| 2026-04-25 16:10 | 51.08339 | 6.71880 | 2333 ft | 159 kts | 64° |
| 2026-04-25 16:10 | 51.09009 | 6.73273 | 2329 ft | 155 kts | 39° |
| 2026-04-25 16:10 | 51.09819 | 6.74305 | 2394 ft | 150 kts | 34° |
| 2026-04-25 16:10 | 51.10687 | 6.75257 | 2358 ft | 153 kts | 28° |
| 2026-04-25 16:11 | 51.11556 | 6.76225 | 2345 ft | 152 kts | 35° |
| 2026-04-25 16:11 | 51.12394 | 6.77291 | 2126 ft | 155 kts | 32° |
| 2026-04-25 16:11 | 51.13335 | 6.78170 | 1958 ft | 158 kts | 22° |
| 2026-04-25 16:11 | 51.14364 | 6.78688 | 1839 ft | 154 kts | 4° |
| 2026-04-25 16:12 | 51.15410 | 6.78499 | 1744 ft | 150 kts | 347° |
| 2026-04-25 16:12 | 51.16445 | 6.78347 | 1607 ft | 149 kts | 355° |
| 2026-04-25 16:12 | 51.17476 | 6.78306 | 1558 ft | 146 kts | 356° |
| 2026-04-25 16:12 | 51.17804 | 6.78290 | 1568 ft | 145 kts | 354° |
| 2026-04-25 16:13 | 51.19462 | 6.78187 | 1532 ft | 137 kts | 353° |
| 2026-04-25 16:13 | 51.20389 | 6.78089 | 1516 ft | 133 kts | 353° |
| 2026-04-25 16:13 | 51.21315 | 6.77913 | 1496 ft | 135 kts | 351° |
| 2026-04-25 16:13 | 51.22251 | 6.77851 | 1479 ft | 134 kts | 356° |
| 2026-04-25 16:14 | 51.23186 | 6.77872 | 1465 ft | 133 kts | 356° |
| 2026-04-25 16:14 | 51.24108 | 6.77871 | 1331 ft | 133 kts | 356° |
| 2026-04-25 16:14 | 51.25023 | 6.77862 | 1205 ft | 128 kts | 355° |
| 2026-04-25 16:14 | 51.25890 | 6.77800 | 1186 ft | 123 kts | 354° |
| 2026-04-25 16:15 | 51.26745 | 6.77815 | 1189 ft | 122 kts | 8° |
| 2026-04-25 16:15 | 51.27446 | 6.78499 | 1187 ft | 121 kts | 41° |
| 2026-04-25 16:15 | 51.28019 | 6.79469 | 1193 ft | 117 kts | 42° |
| 2026-04-25 16:15 | 51.28593 | 6.80351 | 1226 ft | 112 kts | 37° |
| 2026-04-25 16:16 | 51.29148 | 6.81070 | 1153 ft | 94 kts | 20° |
| 2026-04-25 16:16 | 51.29683 | 6.81039 | 936 ft | 77 kts | 315° |
| 2026-04-25 16:16 | 51.29974 | 6.80331 | 664 ft | 74 kts | 307° |
| 2026-04-25 16:16 | 51.30050 | 6.79560 | 340 ft | 77 kts | 246° |
| 2026-04-25 16:17 | 51.29690 | 6.78868 | 215 ft | 83 kts | 244° |
| 2026-04-25 16:17 | 51.29340 | 6.78111 | 182 ft | 93 kts | 241° |
| 2026-04-25 16:17 | 51.28878 | 6.77129 | 151 ft | 129 kts | 236° |
| 2026-04-25 16:17 | 51.28284 | 6.75897 | 179 ft | 148 kts | 236° |
| 2026-04-25 16:18 | 51.28386 | 6.74632 | 637 ft | 122 kts | 339° |
| 2026-04-25 16:18 | 51.28644 | 6.74535 | 903 ft | 104 kts | 349° |
| 2026-04-25 16:18 | 51.29819 | 6.74429 | 1595 ft | 101 kts | 360° |
| 2026-04-25 16:18 | 51.30532 | 6.74512 | 1910 ft | 105 kts | 359° |
| 2026-04-25 16:19 | 51.31260 | 6.74587 | 2286 ft | 103 kts | 355° |
| 2026-04-25 16:19 | 51.31973 | 6.74570 | 2602 ft | 104 kts | 353° |
| 2026-04-25 16:19 | 51.32738 | 6.74499 | 2502 ft | 113 kts | 353° |
| 2026-04-25 16:20 | 51.34569 | 6.74365 | 2392 ft | 145 kts | 359° |
| 2026-04-25 16:20 | 51.35594 | 6.74458 | 2302 ft | 151 kts | 4° |
| 2026-04-25 16:20 | 51.37706 | 6.74511 | 2187 ft | 151 kts | 348° |
| 2026-04-25 16:21 | 51.38655 | 6.73872 | 2159 ft | 147 kts | 323° |
| 2026-04-25 16:21 | 51.39339 | 6.72638 | 2034 ft | 153 kts | 297° |
| 2026-04-25 16:21 | 51.39602 | 6.70997 | 2011 ft | 151 kts | 279° |
| 2026-04-25 16:21 | 51.39608 | 6.69312 | 1975 ft | 153 kts | 267° |
| 2026-04-25 16:22 | 51.39326 | 6.67642 | 1870 ft | 156 kts | 251° |
| 2026-04-25 16:22 | 51.38701 | 6.66202 | 1797 ft | 160 kts | 231° |
| 2026-04-25 16:22 | 51.37953 | 6.64911 | 1861 ft | 156 kts | 232° |
| 2026-04-25 16:22 | 51.37262 | 6.63577 | 1771 ft | 159 kts | 231° |
| 2026-04-25 16:23 | 51.36495 | 6.62310 | 1786 ft | 156 kts | 238° |
| 2026-04-25 16:23 | 51.36026 | 6.60747 | 1726 ft | 154 kts | 249° |
| 2026-04-25 16:23 | 51.35540 | 6.59211 | 1650 ft | 156 kts | 250° |
| 2026-04-25 16:23 | 51.35191 | 6.57585 | 1621 ft | 152 kts | 265° |
| 2026-04-25 16:24 | 51.35195 | 6.55913 | 1579 ft | 150 kts | 282° |
| 2026-04-25 16:24 | 51.35489 | 6.54322 | 1566 ft | 147 kts | 292° |
| 2026-04-25 16:24 | 51.35934 | 6.52843 | 1569 ft | 146 kts | 298° |
| 2026-04-25 16:24 | 51.36366 | 6.51391 | 1604 ft | 142 kts | 294° |
| 2026-04-25 16:25 | 51.36545 | 6.50402 | 1709 ft | 139 kts | 283° |
| 2026-04-25 16:25 | 51.36652 | 6.49375 | 1772 ft | 140 kts | 281° |
| 2026-04-25 16:25 | 51.36860 | 6.47297 | 1842 ft | 144 kts | 283° |
| 2026-04-25 16:25 | 51.36607 | 6.45790 | 1759 ft | 151 kts | 228° |
| 2026-04-25 16:26 | 51.35599 | 6.45416 | 1781 ft | 158 kts | 171° |
| 2026-04-25 16:26 | 51.34545 | 6.45905 | 1826 ft | 158 kts | 166° |
| 2026-04-25 16:26 | 51.33498 | 6.46491 | 1867 ft | 160 kts | 164° |
| 2026-04-25 16:26 | 51.32412 | 6.46945 | 1869 ft | 164 kts | 165° |
| 2026-04-25 16:27 | 51.31371 | 6.47626 | 1947 ft | 161 kts | 154° |
| 2026-04-25 16:27 | 51.30350 | 6.48417 | 1946 ft | 165 kts | 158° |
| 2026-04-25 16:27 | 51.29266 | 6.48993 | 1925 ft | 162 kts | 166° |
| 2026-04-25 16:27 | 51.28225 | 6.49625 | 1770 ft | 161 kts | 155° |
| 2026-04-25 16:28 | 51.27224 | 6.50389 | 1656 ft | 158 kts | 156° |
| 2026-04-25 16:28 | 51.26217 | 6.51081 | 1493 ft | 158 kts | 161° |
| 2026-04-25 16:28 | 51.25195 | 6.51713 | 1299 ft | 157 kts | 149° |
| 2026-04-25 16:28 | 51.24468 | 6.52886 | 1279 ft | 142 kts | 126° |
| 2026-04-25 16:29 | 51.23881 | 6.54065 | 1300 ft | 125 kts | 128° |
| 2026-04-25 16:29 | 51.23335 | 6.55006 | 1256 ft | 106 kts | 133° |
| 2026-04-25 16:29 | 51.22692 | 6.55330 | 1122 ft | 98 kts | 193° |
| 2026-04-25 16:29 | 51.22095 | 6.54880 | 934 ft | 91 kts | 219° |
| 2026-04-25 16:30 | 51.21717 | 6.54165 | 816 ft | 83 kts | 256° |
| 2026-04-25 16:30 | 51.21668 | 6.53287 | 614 ft | 77 kts | 284° |
| 2026-04-25 16:30 | 51.21931 | 6.52615 | 415 ft | 66 kts | 316° |
| 2026-04-25 16:30 | 51.22213 | 6.52068 | 297 ft | 63 kts | 310° |
| 2026-04-25 16:31 | 51.22487 | 6.51548 | 207 ft | 61 kts | 309° |
| 2026-04-25 16:31 | 51.22734 | 6.51050 | 129 ft | 50 kts | 308° |
| 2026-04-25 16:31 | 51.22890 | 6.50742 | 125 ft | 23 kts | 310° |
| 2026-04-25 16:31 | 51.22907 | 6.50651 | 126 ft | 3 kts | 223° |
| 2026-04-25 16:32 | 51.22876 | 6.50613 | 128 ft | 9 kts | 217° |
| 2026-04-25 16:32 | 51.22867 | 6.50521 | 126 ft | 10 kts | 305° |
| 2026-04-25 16:32 | 51.22906 | 6.50437 | 128 ft | 8 kts | 286° |
| 2026-04-25 16:32 | 51.22877 | 6.50374 | 128 ft | 5 kts | 217° |
| 2026-04-25 16:33 | 51.22878 | 6.50350 | 127 ft | 2 kts | 310° |
| 2026-04-25 16:33 | 51.22879 | 6.50348 | 127 ft | 0 kts | 311° |